sensor_id;sensor_type;location;lat;lon;timestamp;P1;durP1;ratioP1;P2;durP2;ratioP2
2035;SDS011;23642;42.658;23.350;2023-12-20T00:01:23;125.82;;;115.80;;
2035;SDS011;23642;42.658;23.350;2023-12-20T00:03:56;124.80;;;114.55;;
2035;SDS011;23642;42.658;23.350;2023-12-20T00:06:40;126.13;;;116.35;;
2035;SDS011;23642;42.658;23.350;2023-12-20T00:09:52;127.53;;;117.18;;
2035;SDS011;23642;42.658;23.350;2023-12-20T00:19:12;127.45;;;116.78;;
2035;SDS011;23642;42.658;23.350;2023-12-20T00:21:54;129.60;;;118.53;;
2035;SDS011;23642;42.658;23.350;2023-12-20T00:24:24;128.68;;;118.07;;
2035;SDS011;23642;42.658;23.350;2023-12-20T00:27:06;127.18;;;116.47;;
2035;SDS011;23642;42.658;23.350;2023-12-20T00:29:45;127.90;;;117.55;;
2035;SDS011;23642;42.658;23.350;2023-12-20T00:32:31;130.95;;;120.32;;
2035;SDS011;23642;42.658;23.350;2023-12-20T00:35:09;128.73;;;118.30;;
2035;SDS011;23642;42.658;23.350;2023-12-20T00:38:04;127.80;;;117.13;;
2035;SDS011;23642;42.658;23.350;2023-12-20T00:40:40;133.95;;;122.25;;
2035;SDS011;23642;42.658;23.350;2023-12-20T00:43:33;129.65;;;118.93;;
2035;SDS011;23642;42.658;23.350;2023-12-20T00:46:26;132.75;;;122.00;;
2035;SDS011;23642;42.658;23.350;2023-12-20T00:49:04;135.77;;;124.55;;
2035;SDS011;23642;42.658;23.350;2023-12-20T00:58:29;131.02;;;119.78;;
2035;SDS011;23642;42.658;23.350;2023-12-20T01:01:24;129.07;;;118.10;;
2035;SDS011;23642;42.658;23.350;2023-12-20T01:04:11;130.43;;;120.28;;
2035;SDS011;23642;42.658;23.350;2023-12-20T01:10:21;125.90;;;115.65;;
2035;SDS011;23642;42.658;23.350;2023-12-20T01:13:11;128.82;;;118.22;;
2035;SDS011;23642;42.658;23.350;2023-12-20T01:28:24;128.80;;;118.63;;
2035;SDS011;23642;42.658;23.350;2023-12-20T01:37:52;130.43;;;119.95;;
2035;SDS011;23642;42.658;23.350;2023-12-20T01:40:28;130.38;;;118.93;;
2035;SDS011;23642;42.658;23.350;2023-12-20T01:43:17;128.73;;;118.03;;
2035;SDS011;23642;42.658;23.350;2023-12-20T01:46:12;126.07;;;116.07;;
2035;SDS011;23642;42.658;23.350;2023-12-20T01:49:14;126.13;;;115.60;;
2035;SDS011;23642;42.658;23.350;2023-12-20T01:52:01;123.95;;;114.45;;
2035;SDS011;23642;42.658;23.350;2023-12-20T01:55:11;125.15;;;115.05;;
2035;SDS011;23642;42.658;23.350;2023-12-20T01:58:03;121.90;;;112.57;;
2035;SDS011;23642;42.658;23.350;2023-12-20T02:03:49;123.85;;;114.28;;
2035;SDS011;23642;42.658;23.350;2023-12-20T02:06:35;119.38;;;110.45;;
2035;SDS011;23642;42.658;23.350;2023-12-20T02:09:27;120.63;;;111.28;;
2035;SDS011;23642;42.658;23.350;2023-12-20T02:12:37;127.47;;;117.13;;
2035;SDS011;23642;42.658;23.350;2023-12-20T02:15:20;123.50;;;114.05;;
2035;SDS011;23642;42.658;23.350;2023-12-20T02:24:52;112.25;;;104.53;;
2035;SDS011;23642;42.658;23.350;2023-12-20T02:27:45;113.35;;;105.47;;
2035;SDS011;23642;42.658;23.350;2023-12-20T02:31:09;113.30;;;105.18;;
2035;SDS011;23642;42.658;23.350;2023-12-20T02:34:25;113.75;;;105.45;;
2035;SDS011;23642;42.658;23.350;2023-12-20T02:37:44;109.00;;;101.45;;
2035;SDS011;23642;42.658;23.350;2023-12-20T02:43:33;129.15;;;118.60;;
2035;SDS011;23642;42.658;23.350;2023-12-20T02:46:28;133.00;;;121.80;;
2035;SDS011;23642;42.658;23.350;2023-12-20T02:49:19;131.88;;;121.35;;
2035;SDS011;23642;42.658;23.350;2023-12-20T02:58:19;131.65;;;120.88;;
2035;SDS011;23642;42.658;23.350;2023-12-20T03:01:04;141.82;;;129.20;;
2035;SDS011;23642;42.658;23.350;2023-12-20T03:03:48;143.20;;;130.63;;
2035;SDS011;23642;42.658;23.350;2023-12-20T03:10:25;149.68;;;135.23;;
2035;SDS011;23642;42.658;23.350;2023-12-20T03:13:06;154.45;;;139.40;;
2035;SDS011;23642;42.658;23.350;2023-12-20T03:15:45;164.20;;;148.70;;
2035;SDS011;23642;42.658;23.350;2023-12-20T03:25:15;181.73;;;163.05;;
2035;SDS011;23642;42.658;23.350;2023-12-20T03:28:06;187.38;;;168.38;;
2035;SDS011;23642;42.658;23.350;2023-12-20T03:30:50;193.23;;;172.82;;
2035;SDS011;23642;42.658;23.350;2023-12-20T03:33:38;176.98;;;159.38;;
2035;SDS011;23642;42.658;23.350;2023-12-20T03:36:12;194.75;;;173.73;;
2035;SDS011;23642;42.658;23.350;2023-12-20T03:39:06;184.52;;;164.40;;
2035;SDS011;23642;42.658;23.350;2023-12-20T03:41:49;189.88;;;169.40;;
2035;SDS011;23642;42.658;23.350;2023-12-20T03:44:20;171.30;;;154.23;;
2035;SDS011;23642;42.658;23.350;2023-12-20T03:47:06;178.88;;;161.02;;
2035;SDS011;23642;42.658;23.350;2023-12-20T03:49:49;176.13;;;157.85;;
2035;SDS011;23642;42.658;23.350;2023-12-20T03:52:53;186.05;;;166.65;;
2035;SDS011;23642;42.658;23.350;2023-12-20T03:55:33;182.07;;;162.32;;
2035;SDS011;23642;42.658;23.350;2023-12-20T04:01:52;189.82;;;169.73;;
2035;SDS011;23642;42.658;23.350;2023-12-20T04:04:39;182.60;;;163.70;;
2035;SDS011;23642;42.658;23.350;2023-12-20T04:07:22;189.88;;;169.73;;
2035;SDS011;23642;42.658;23.350;2023-12-20T04:10:25;181.23;;;162.55;;
2035;SDS011;23642;42.658;23.350;2023-12-20T04:13:21;184.63;;;165.60;;
2035;SDS011;23642;42.658;23.350;2023-12-20T04:16:48;176.60;;;157.82;;
2035;SDS011;23642;42.658;23.350;2023-12-20T04:19:51;182.68;;;162.90;;
2035;SDS011;23642;42.658;23.350;2023-12-20T04:22:47;183.07;;;163.13;;
2035;SDS011;23642;42.658;23.350;2023-12-20T04:28:39;181.50;;;162.27;;
2035;SDS011;23642;42.658;23.350;2023-12-20T04:31:25;191.13;;;171.40;;
2035;SDS011;23642;42.658;23.350;2023-12-20T04:34:34;186.60;;;166.65;;
2035;SDS011;23642;42.658;23.350;2023-12-20T04:37:55;181.68;;;163.10;;
2035;SDS011;23642;42.658;23.350;2023-12-20T04:40:55;174.00;;;156.82;;
2035;SDS011;23642;42.658;23.350;2023-12-20T04:43:57;168.77;;;151.10;;
2035;SDS011;23642;42.658;23.350;2023-12-20T04:47:21;168.70;;;151.52;;
2035;SDS011;23642;42.658;23.350;2023-12-20T04:50:22;163.05;;;147.68;;
2035;SDS011;23642;42.658;23.350;2023-12-20T04:53:31;166.43;;;150.73;;
2035;SDS011;23642;42.658;23.350;2023-12-20T04:56:31;169.02;;;152.13;;
2035;SDS011;23642;42.658;23.350;2023-12-20T04:59:19;169.90;;;152.63;;
2035;SDS011;23642;42.658;23.350;2023-12-20T05:02:12;171.20;;;154.65;;
2035;SDS011;23642;42.658;23.350;2023-12-20T05:05:04;180.70;;;162.13;;
2035;SDS011;23642;42.658;23.350;2023-12-20T05:07:47;190.57;;;170.77;;
2035;SDS011;23642;42.658;23.350;2023-12-20T05:10:39;183.77;;;164.13;;
2035;SDS011;23642;42.658;23.350;2023-12-20T05:13:42;187.65;;;168.43;;
2035;SDS011;23642;42.658;23.350;2023-12-20T05:16:17;184.85;;;166.10;;
2035;SDS011;23642;42.658;23.350;2023-12-20T05:19:47;186.27;;;166.27;;
2035;SDS011;23642;42.658;23.350;2023-12-20T05:22:35;180.48;;;161.10;;
2035;SDS011;23642;42.658;23.350;2023-12-20T05:25:07;180.70;;;161.35;;
2035;SDS011;23642;42.658;23.350;2023-12-20T05:30:48;182.38;;;160.75;;
2035;SDS011;23642;42.658;23.350;2023-12-20T05:33:29;178.55;;;159.68;;
2035;SDS011;23642;42.658;23.350;2023-12-20T05:36:02;179.30;;;159.18;;
2035;SDS011;23642;42.658;23.350;2023-12-20T05:38:41;178.60;;;159.20;;
2035;SDS011;23642;42.658;23.350;2023-12-20T05:41:12;176.35;;;157.25;;
2035;SDS011;23642;42.658;23.350;2023-12-20T05:46:43;182.45;;;157.48;;
2035;SDS011;23642;42.658;23.350;2023-12-20T05:49:12;201.35;;;157.25;;
2035;SDS011;23642;42.658;23.350;2023-12-20T05:51:40;193.30;;;156.80;;
2035;SDS011;23642;42.658;23.350;2023-12-20T05:54:18;204.98;;;154.10;;
2035;SDS011;23642;42.658;23.350;2023-12-20T05:57:05;279.42;;;158.68;;
2035;SDS011;23642;42.658;23.350;2023-12-20T05:59:40;213.27;;;152.40;;
2035;SDS011;23642;42.658;23.350;2023-12-20T06:02:21;224.85;;;152.85;;
2035;SDS011;23642;42.658;23.350;2023-12-20T06:05:08;260.77;;;152.07;;
2035;SDS011;23642;42.658;23.350;2023-12-20T06:07:41;194.73;;;152.45;;
2035;SDS011;23642;42.658;23.350;2023-12-20T06:10:27;222.07;;;144.38;;
2035;SDS011;23642;42.658;23.350;2023-12-20T06:13:15;168.73;;;142.25;;
2035;SDS011;23642;42.658;23.350;2023-12-20T06:16:00;199.30;;;147.18;;
2035;SDS011;23642;42.658;23.350;2023-12-20T06:18:44;181.82;;;144.52;;
2035;SDS011;23642;42.658;23.350;2023-12-20T06:21:18;162.90;;;145.18;;
2035;SDS011;23642;42.658;23.350;2023-12-20T06:23:52;162.10;;;143.77;;
2035;SDS011;23642;42.658;23.350;2023-12-20T06:26:23;169.15;;;142.48;;
2035;SDS011;23642;42.658;23.350;2023-12-20T06:28:55;186.55;;;138.48;;
2035;SDS011;23642;42.658;23.350;2023-12-20T06:31:44;153.88;;;137.18;;
2035;SDS011;23642;42.658;23.350;2023-12-20T06:34:17;153.90;;;138.00;;
2035;SDS011;23642;42.658;23.350;2023-12-20T06:37:08;151.05;;;135.82;;
2035;SDS011;23642;42.658;23.350;2023-12-20T06:39:56;147.30;;;133.02;;
2035;SDS011;23642;42.658;23.350;2023-12-20T06:42:45;146.13;;;131.20;;
2035;SDS011;23642;42.658;23.350;2023-12-20T06:45:23;152.23;;;136.73;;
2035;SDS011;23642;42.658;23.350;2023-12-20T06:48:19;144.60;;;131.10;;
2035;SDS011;23642;42.658;23.350;2023-12-20T06:50:53;143.25;;;129.82;;
2035;SDS011;23642;42.658;23.350;2023-12-20T06:53:28;148.32;;;133.70;;
2035;SDS011;23642;42.658;23.350;2023-12-20T06:56:14;145.90;;;131.75;;
2035;SDS011;23642;42.658;23.350;2023-12-20T06:58:55;153.35;;;139.15;;
2035;SDS011;23642;42.658;23.350;2023-12-20T07:02:11;153.93;;;139.48;;
2035;SDS011;23642;42.658;23.350;2023-12-20T07:05:07;150.20;;;136.63;;
2035;SDS011;23642;42.658;23.350;2023-12-20T07:07:48;154.18;;;139.60;;
2035;SDS011;23642;42.658;23.350;2023-12-20T07:10:24;158.18;;;142.82;;
2035;SDS011;23642;42.658;23.350;2023-12-20T07:15:48;162.48;;;146.57;;
2035;SDS011;23642;42.658;23.350;2023-12-20T07:18:23;166.82;;;150.27;;
2035;SDS011;23642;42.658;23.350;2023-12-20T07:21:23;179.80;;;160.95;;
2035;SDS011;23642;42.658;23.350;2023-12-20T07:24:04;181.68;;;162.55;;
2035;SDS011;23642;42.658;23.350;2023-12-20T07:26:52;182.95;;;163.52;;
2035;SDS011;23642;42.658;23.350;2023-12-20T07:29:27;184.38;;;165.82;;
2035;SDS011;23642;42.658;23.350;2023-12-20T07:32:06;185.45;;;166.63;;
2035;SDS011;23642;42.658;23.350;2023-12-20T07:34:58;183.25;;;165.00;;
2035;SDS011;23642;42.658;23.350;2023-12-20T07:37:35;179.30;;;160.40;;
2035;SDS011;23642;42.658;23.350;2023-12-20T07:43:25;181.07;;;162.90;;
2035;SDS011;23642;42.658;23.350;2023-12-20T07:46:49;175.70;;;158.20;;
2035;SDS011;23642;42.658;23.350;2023-12-20T07:49:36;175.13;;;156.55;;
2035;SDS011;23642;42.658;23.350;2023-12-20T07:52:13;168.15;;;151.52;;
2035;SDS011;23642;42.658;23.350;2023-12-20T07:55:08;167.75;;;151.77;;
2035;SDS011;23642;42.658;23.350;2023-12-20T08:01:33;169.55;;;153.05;;
2035;SDS011;23642;42.658;23.350;2023-12-20T08:07:36;163.07;;;147.75;;
2035;SDS011;23642;42.658;23.350;2023-12-20T08:10:10;169.65;;;152.77;;
2035;SDS011;23642;42.658;23.350;2023-12-20T08:12:52;170.15;;;153.32;;
2035;SDS011;23642;42.658;23.350;2023-12-20T08:22:12;164.20;;;148.77;;
2035;SDS011;23642;42.658;23.350;2023-12-20T08:24:49;168.60;;;151.73;;
2035;SDS011;23642;42.658;23.350;2023-12-20T08:27:22;164.93;;;148.85;;
2035;SDS011;23642;42.658;23.350;2023-12-20T08:30:12;165.35;;;149.18;;
2035;SDS011;23642;42.658;23.350;2023-12-20T08:32:44;168.43;;;152.02;;
2035;SDS011;23642;42.658;23.350;2023-12-20T08:35:30;163.57;;;148.27;;
2035;SDS011;23642;42.658;23.350;2023-12-20T08:37:59;164.13;;;148.85;;
2035;SDS011;23642;42.658;23.350;2023-12-20T08:40:29;168.90;;;153.52;;
2035;SDS011;23642;42.658;23.350;2023-12-20T08:43:03;169.27;;;153.05;;
2035;SDS011;23642;42.658;23.350;2023-12-20T08:45:41;165.88;;;150.27;;
2035;SDS011;23642;42.658;23.350;2023-12-20T08:48:11;163.55;;;146.77;;
2035;SDS011;23642;42.658;23.350;2023-12-20T08:50:40;160.50;;;145.13;;
2035;SDS011;23642;42.658;23.350;2023-12-20T08:56:12;161.60;;;145.57;;
2035;SDS011;23642;42.658;23.350;2023-12-20T08:59:05;162.65;;;146.75;;
2035;SDS011;23642;42.658;23.350;2023-12-20T09:01:46;165.27;;;148.23;;
2035;SDS011;23642;42.658;23.350;2023-12-20T09:04:41;165.30;;;147.93;;
2035;SDS011;23642;42.658;23.350;2023-12-20T09:07:23;165.43;;;148.35;;
2035;SDS011;23642;42.658;23.350;2023-12-20T09:10:19;173.10;;;156.30;;
2035;SDS011;23642;42.658;23.350;2023-12-20T09:13:06;170.67;;;152.93;;
2035;SDS011;23642;42.658;23.350;2023-12-20T09:15:52;168.63;;;150.95;;
2035;SDS011;23642;42.658;23.350;2023-12-20T09:18:23;165.10;;;148.02;;
2035;SDS011;23642;42.658;23.350;2023-12-20T09:21:10;167.38;;;149.05;;
2035;SDS011;23642;42.658;23.350;2023-12-20T09:26:51;169.20;;;152.30;;
2035;SDS011;23642;42.658;23.350;2023-12-20T09:29:20;171.70;;;153.82;;
2035;SDS011;23642;42.658;23.350;2023-12-20T09:32:02;161.77;;;145.90;;
2035;SDS011;23642;42.658;23.350;2023-12-20T09:34:47;164.85;;;147.40;;
2035;SDS011;23642;42.658;23.350;2023-12-20T09:37:38;163.63;;;147.07;;
2035;SDS011;23642;42.658;23.350;2023-12-20T09:40:18;170.93;;;153.90;;
2035;SDS011;23642;42.658;23.350;2023-12-20T09:42:54;167.05;;;150.70;;
2035;SDS011;23642;42.658;23.350;2023-12-20T09:48:24;168.40;;;151.67;;
2035;SDS011;23642;42.658;23.350;2023-12-20T09:51:13;164.80;;;147.40;;
2035;SDS011;23642;42.658;23.350;2023-12-20T09:53:41;166.57;;;148.87;;
2035;SDS011;23642;42.658;23.350;2023-12-20T09:56:13;174.70;;;152.60;;
2035;SDS011;23642;42.658;23.350;2023-12-20T10:01:27;165.47;;;148.27;;
2035;SDS011;23642;42.658;23.350;2023-12-20T10:04:05;167.83;;;150.03;;
2035;SDS011;23642;42.658;23.350;2023-12-20T10:06:47;166.87;;;149.33;;
2035;SDS011;23642;42.658;23.350;2023-12-20T10:09:18;167.77;;;149.53;;
2035;SDS011;23642;42.658;23.350;2023-12-20T10:11:48;159.67;;;143.43;;
2035;SDS011;23642;42.658;23.350;2023-12-20T10:14:35;166.47;;;149.50;;
2035;SDS011;23642;42.658;23.350;2023-12-20T10:17:20;165.23;;;149.40;;
2035;SDS011;23642;42.658;23.350;2023-12-20T10:20:10;165.30;;;149.20;;
2035;SDS011;23642;42.658;23.350;2023-12-20T10:23:18;165.90;;;149.60;;
2035;SDS011;23642;42.658;23.350;2023-12-20T10:26:06;172.67;;;155.70;;
2035;SDS011;23642;42.658;23.350;2023-12-20T10:28:49;171.20;;;154.13;;
2035;SDS011;23642;42.658;23.350;2023-12-20T10:31:35;176.70;;;159.90;;
2035;SDS011;23642;42.658;23.350;2023-12-20T10:34:10;171.20;;;155.57;;
2035;SDS011;23642;42.658;23.350;2023-12-20T10:36:39;178.03;;;161.53;;
2035;SDS011;23642;42.658;23.350;2023-12-20T10:39:11;175.63;;;159.30;;
2035;SDS011;23642;42.658;23.350;2023-12-20T10:41:52;170.43;;;154.37;;
2035;SDS011;23642;42.658;23.350;2023-12-20T10:44:23;168.87;;;151.97;;
2035;SDS011;23642;42.658;23.350;2023-12-20T10:46:56;167.10;;;151.47;;
2035;SDS011;23642;42.658;23.350;2023-12-20T10:49:30;168.83;;;152.63;;
2035;SDS011;23642;42.658;23.350;2023-12-20T10:52:06;172.53;;;155.67;;
2035;SDS011;23642;42.658;23.350;2023-12-20T10:54:55;171.37;;;155.37;;
2035;SDS011;23642;42.658;23.350;2023-12-20T10:57:22;167.93;;;151.00;;
2035;SDS011;23642;42.658;23.350;2023-12-20T10:59:53;166.40;;;150.07;;
2035;SDS011;23642;42.658;23.350;2023-12-20T11:02:27;163.20;;;147.80;;
2035;SDS011;23642;42.658;23.350;2023-12-20T11:05:06;175.60;;;157.63;;
2035;SDS011;23642;42.658;23.350;2023-12-20T11:07:50;170.37;;;153.67;;
2035;SDS011;23642;42.658;23.350;2023-12-20T11:10:29;165.57;;;149.27;;
2035;SDS011;23642;42.658;23.350;2023-12-20T11:13:08;168.30;;;151.37;;
2035;SDS011;23642;42.658;23.350;2023-12-20T11:15:45;160.73;;;143.70;;
2035;SDS011;23642;42.658;23.350;2023-12-20T11:18:22;161.60;;;146.30;;
2035;SDS011;23642;42.658;23.350;2023-12-20T11:21:11;163.57;;;146.17;;
2035;SDS011;23642;42.658;23.350;2023-12-20T11:23:45;163.40;;;146.20;;
2035;SDS011;23642;42.658;23.350;2023-12-20T11:26:56;159.98;;;144.10;;
2035;SDS011;23642;42.658;23.350;2023-12-20T11:29:31;159.97;;;144.80;;
2035;SDS011;23642;42.658;23.350;2023-12-20T11:32:02;156.55;;;140.60;;
2035;SDS011;23642;42.658;23.350;2023-12-20T11:34:46;159.40;;;144.10;;
2035;SDS011;23642;42.658;23.350;2023-12-20T11:37:35;159.70;;;144.50;;
2035;SDS011;23642;42.658;23.350;2023-12-20T11:40:18;162.47;;;146.30;;
2035;SDS011;23642;42.658;23.350;2023-12-20T11:43:00;165.10;;;149.25;;
2035;SDS011;23642;42.658;23.350;2023-12-20T11:45:37;159.67;;;143.97;;
2035;SDS011;23642;42.658;23.350;2023-12-20T11:48:34;165.05;;;147.85;;
2035;SDS011;23642;42.658;23.350;2023-12-20T11:51:12;160.97;;;144.60;;
2035;SDS011;23642;42.658;23.350;2023-12-20T11:53:51;164.40;;;148.40;;
2035;SDS011;23642;42.658;23.350;2023-12-20T11:56:28;156.73;;;141.37;;
2035;SDS011;23642;42.658;23.350;2023-12-20T11:59:08;164.47;;;148.60;;
2035;SDS011;23642;42.658;23.350;2023-12-20T12:01:49;161.67;;;145.63;;
2035;SDS011;23642;42.658;23.350;2023-12-20T12:04:33;164.47;;;147.80;;
2035;SDS011;23642;42.658;23.350;2023-12-20T12:07:48;165.83;;;149.33;;
2035;SDS011;23642;42.658;23.350;2023-12-20T12:10:43;168.67;;;151.87;;
2035;SDS011;23642;42.658;23.350;2023-12-20T12:13:15;168.70;;;152.90;;
2035;SDS011;23642;42.658;23.350;2023-12-20T12:15:45;161.80;;;146.80;;
2035;SDS011;23642;42.658;23.350;2023-12-20T12:18:18;162.53;;;146.67;;
2035;SDS011;23642;42.658;23.350;2023-12-20T12:20:50;164.20;;;148.40;;
2035;SDS011;23642;42.658;23.350;2023-12-20T12:23:28;165.70;;;149.30;;
2035;SDS011;23642;42.658;23.350;2023-12-20T12:25:58;169.97;;;153.50;;
2035;SDS011;23642;42.658;23.350;2023-12-20T12:28:39;168.13;;;152.77;;
2035;SDS011;23642;42.658;23.350;2023-12-20T12:31:14;161.17;;;146.87;;
2035;SDS011;23642;42.658;23.350;2023-12-20T12:33:44;159.30;;;145.00;;
2035;SDS011;23642;42.658;23.350;2023-12-20T12:36:13;165.50;;;150.60;;
2035;SDS011;23642;42.658;23.350;2023-12-20T12:38:48;160.67;;;146.47;;
2035;SDS011;23642;42.658;23.350;2023-12-20T12:41:21;161.63;;;147.27;;
2035;SDS011;23642;42.658;23.350;2023-12-20T12:43:50;162.40;;;147.60;;
2035;SDS011;23642;42.658;23.350;2023-12-20T12:46:38;163.57;;;148.50;;
2035;SDS011;23642;42.658;23.350;2023-12-20T12:49:35;161.23;;;147.33;;
2035;SDS011;23642;42.658;23.350;2023-12-20T12:52:05;167.43;;;151.20;;
2035;SDS011;23642;42.658;23.350;2023-12-20T12:54:38;166.77;;;150.90;;
2035;SDS011;23642;42.658;23.350;2023-12-20T12:57:10;164.73;;;149.67;;
2035;SDS011;23642;42.658;23.350;2023-12-20T12:59:45;163.73;;;148.60;;
2035;SDS011;23642;42.658;23.350;2023-12-20T13:02:18;165.60;;;148.90;;
2035;SDS011;23642;42.658;23.350;2023-12-20T13:04:49;168.07;;;151.03;;
2035;SDS011;23642;42.658;23.350;2023-12-20T13:07:39;168.53;;;151.57;;
2035;SDS011;23642;42.658;23.350;2023-12-20T13:10:23;165.67;;;149.97;;
2035;SDS011;23642;42.658;23.350;2023-12-20T13:12:58;175.00;;;157.40;;
2035;SDS011;23642;42.658;23.350;2023-12-20T13:15:29;173.37;;;155.67;;
2035;SDS011;23642;42.658;23.350;2023-12-20T13:18:03;168.80;;;150.73;;
2035;SDS011;23642;42.658;23.350;2023-12-20T13:20:31;167.27;;;149.67;;
2035;SDS011;23642;42.658;23.350;2023-12-20T13:23:00;168.00;;;150.80;;
2035;SDS011;23642;42.658;23.350;2023-12-20T13:25:31;172.33;;;154.77;;
2035;SDS011;23642;42.658;23.350;2023-12-20T13:28:05;170.90;;;153.77;;
2035;SDS011;23642;42.658;23.350;2023-12-20T13:30:37;164.03;;;147.73;;
2035;SDS011;23642;42.658;23.350;2023-12-20T13:33:04;159.03;;;143.10;;
2035;SDS011;23642;42.658;23.350;2023-12-20T13:35:43;161.27;;;144.50;;
2035;SDS011;23642;42.658;23.350;2023-12-20T13:38:21;161.03;;;144.23;;
2035;SDS011;23642;42.658;23.350;2023-12-20T13:40:53;166.37;;;150.07;;
2035;SDS011;23642;42.658;23.350;2023-12-20T13:43:39;161.43;;;145.03;;
2035;SDS011;23642;42.658;23.350;2023-12-20T13:46:13;161.77;;;145.93;;
2035;SDS011;23642;42.658;23.350;2023-12-20T13:48:57;164.20;;;147.00;;
2035;SDS011;23642;42.658;23.350;2023-12-20T13:51:29;161.63;;;144.17;;
2035;SDS011;23642;42.658;23.350;2023-12-20T13:53:57;158.57;;;142.27;;
2035;SDS011;23642;42.658;23.350;2023-12-20T13:56:29;166.87;;;149.27;;
2035;SDS011;23642;42.658;23.350;2023-12-20T13:59:00;162.23;;;145.93;;
2035;SDS011;23642;42.658;23.350;2023-12-20T14:01:36;161.87;;;146.30;;
2035;SDS011;23642;42.658;23.350;2023-12-20T14:04:10;163.53;;;146.70;;
2035;SDS011;23642;42.658;23.350;2023-12-20T14:06:52;162.10;;;145.83;;
2035;SDS011;23642;42.658;23.350;2023-12-20T14:09:24;161.33;;;144.27;;
2035;SDS011;23642;42.658;23.350;2023-12-20T14:12:09;154.53;;;139.20;;
2035;SDS011;23642;42.658;23.350;2023-12-20T14:14:45;158.70;;;141.63;;
2035;SDS011;23642;42.658;23.350;2023-12-20T14:17:14;165.20;;;148.27;;
2035;SDS011;23642;42.658;23.350;2023-12-20T14:20:02;159.05;;;142.32;;
2035;SDS011;23642;42.658;23.350;2023-12-20T14:22:35;155.90;;;139.00;;
2035;SDS011;23642;42.658;23.350;2023-12-20T14:25:12;155.23;;;138.77;;
2035;SDS011;23642;42.658;23.350;2023-12-20T14:27:52;156.50;;;140.30;;
2035;SDS011;23642;42.658;23.350;2023-12-20T14:30:23;155.02;;;138.57;;
2035;SDS011;23642;42.658;23.350;2023-12-20T14:32:53;160.15;;;143.80;;
2035;SDS011;23642;42.658;23.350;2023-12-20T14:35:24;159.07;;;142.18;;
2035;SDS011;23642;42.658;23.350;2023-12-20T14:38:28;164.73;;;147.20;;
2035;SDS011;23642;42.658;23.350;2023-12-20T14:41:10;159.53;;;142.57;;
2035;SDS011;23642;42.658;23.350;2023-12-20T14:43:41;162.27;;;145.07;;
2035;SDS011;23642;42.658;23.350;2023-12-20T14:46:17;159.23;;;142.90;;
2035;SDS011;23642;42.658;23.350;2023-12-20T14:48:54;158.20;;;141.20;;
2035;SDS011;23642;42.658;23.350;2023-12-20T14:51:39;159.50;;;142.27;;
2035;SDS011;23642;42.658;23.350;2023-12-20T14:54:39;166.05;;;146.35;;
2035;SDS011;23642;42.658;23.350;2023-12-20T14:57:16;165.45;;;147.45;;
2035;SDS011;23642;42.658;23.350;2023-12-20T15:00:12;159.95;;;142.55;;
2035;SDS011;23642;42.658;23.350;2023-12-20T15:02:55;167.40;;;145.60;;
2035;SDS011;23642;42.658;23.350;2023-12-20T15:05:36;163.75;;;146.07;;
2035;SDS011;23642;42.658;23.350;2023-12-20T15:08:19;180.05;;;151.52;;
2035;SDS011;23642;42.658;23.350;2023-12-20T15:14:42;184.55;;;150.57;;
2035;SDS011;23642;42.658;23.350;2023-12-20T15:20:13;187.68;;;155.82;;
2035;SDS011;23642;42.658;23.350;2023-12-20T15:22:48;178.55;;;151.75;;
2035;SDS011;23642;42.658;23.350;2023-12-20T15:25:21;178.38;;;149.50;;
2035;SDS011;23642;42.658;23.350;2023-12-20T15:27:55;197.82;;;160.40;;
2035;SDS011;23642;42.658;23.350;2023-12-20T15:33:23;201.02;;;160.48;;
2035;SDS011;23642;42.658;23.350;2023-12-20T15:36:13;195.63;;;157.70;;
2035;SDS011;23642;42.658;23.350;2023-12-20T15:39:04;196.38;;;156.10;;
2035;SDS011;23642;42.658;23.350;2023-12-20T15:41:55;186.95;;;151.95;;
2035;SDS011;23642;42.658;23.350;2023-12-20T15:44:35;199.43;;;157.07;;
2035;SDS011;23642;42.658;23.350;2023-12-20T15:47:33;203.13;;;162.70;;
2035;SDS011;23642;42.658;23.350;2023-12-20T15:50:13;191.77;;;158.80;;
2035;SDS011;23642;42.658;23.350;2023-12-20T15:53:00;183.63;;;159.13;;
2035;SDS011;23642;42.658;23.350;2023-12-20T15:55:31;186.55;;;151.90;;
2035;SDS011;23642;42.658;23.350;2023-12-20T15:58:17;189.73;;;151.35;;
2035;SDS011;23642;42.658;23.350;2023-12-20T16:04:10;182.10;;;155.68;;
2035;SDS011;23642;42.658;23.350;2023-12-20T16:07:06;208.98;;;169.98;;
2035;SDS011;23642;42.658;23.350;2023-12-20T16:09:36;202.27;;;164.00;;
2035;SDS011;23642;42.658;23.350;2023-12-20T16:12:09;197.50;;;160.77;;
2035;SDS011;23642;42.658;23.350;2023-12-20T16:14:40;187.85;;;157.18;;
2035;SDS011;23642;42.658;23.350;2023-12-20T16:17:18;213.88;;;160.57;;
2035;SDS011;23642;42.658;23.350;2023-12-20T16:20:11;192.13;;;156.20;;
2035;SDS011;23642;42.658;23.350;2023-12-20T16:22:42;192.98;;;161.13;;
2035;SDS011;23642;42.658;23.350;2023-12-20T16:25:15;188.07;;;159.13;;
2035;SDS011;23642;42.658;23.350;2023-12-20T16:27:46;204.40;;;155.25;;
2035;SDS011;23642;42.658;23.350;2023-12-20T16:30:17;192.18;;;157.85;;
2035;SDS011;23642;42.658;23.350;2023-12-20T16:32:53;200.15;;;157.32;;
2035;SDS011;23642;42.658;23.350;2023-12-20T16:35:57;180.13;;;151.13;;
2035;SDS011;23642;42.658;23.350;2023-12-20T16:38:35;179.23;;;152.45;;
2035;SDS011;23642;42.658;23.350;2023-12-20T16:41:34;194.73;;;160.38;;
2035;SDS011;23642;42.658;23.350;2023-12-20T16:44:17;187.43;;;160.60;;
2035;SDS011;23642;42.658;23.350;2023-12-20T16:46:59;200.60;;;168.27;;
2035;SDS011;23642;42.658;23.350;2023-12-20T16:49:40;225.68;;;166.10;;
2035;SDS011;23642;42.658;23.350;2023-12-20T16:52:17;201.60;;;160.93;;
2035;SDS011;23642;42.658;23.350;2023-12-20T16:55:00;187.55;;;158.15;;
2035;SDS011;23642;42.658;23.350;2023-12-20T16:57:35;177.73;;;158.15;;
2035;SDS011;23642;42.658;23.350;2023-12-20T17:00:08;203.77;;;156.57;;
2035;SDS011;23642;42.658;23.350;2023-12-20T17:02:40;199.07;;;157.98;;
2035;SDS011;23642;42.658;23.350;2023-12-20T17:05:21;189.25;;;154.57;;
2035;SDS011;23642;42.658;23.350;2023-12-20T17:07:59;186.80;;;155.77;;
2035;SDS011;23642;42.658;23.350;2023-12-20T17:10:39;186.20;;;156.88;;
2035;SDS011;23642;42.658;23.350;2023-12-20T17:13:12;199.80;;;153.65;;
2035;SDS011;23642;42.658;23.350;2023-12-20T17:15:52;201.25;;;153.00;;
2035;SDS011;23642;42.658;23.350;2023-12-20T17:18:25;194.38;;;153.82;;
2035;SDS011;23642;42.658;23.350;2023-12-20T17:21:04;193.15;;;154.68;;
2035;SDS011;23642;42.658;23.350;2023-12-20T17:23:39;194.82;;;159.00;;
2035;SDS011;23642;42.658;23.350;2023-12-20T17:26:25;200.35;;;155.90;;